Bodega, California
Current Conditions -  °F | °C
As of 8:53 AM on Friday 28 Nov 2014 (Local Time) from KSTS Reporting Station
Haze Haze  
Wind Chill: 47°   Ceiling: 4000
Heat Index: 47°   Visibility: 4mi
Dew Point: 46°   Wind: 0mph
Humidity: 97%   Direction: NA
Pressure: 30.01"   Gusts: NA
Location:  38.35°N, 122.97°W
Report Text: KSTS 281653Z 00000KT 4SM BR SCT002 OVC040 08/08 A3001 RMK AO2 SLP157 T00830078
Loading
Personal Weather Stations






























Interactive Weather Map New forecast layout! Learn more

10-Day Weather Forecast

Advertisements
Track Severe Weather on mobile